Terminal Aerodrome Forecast
Issued by NWS Jackson, MS

Home | Current Version | Previous Version | Text Only | Print | Product List | Glossary On
Versions: 1 2 3 4 5 6 7 8 9 10 11 12 13 14 15 16
000
FTUS44 KJAN 280500
TAFGLH
TAF
KGLH 280520Z 2806/2906 35012KT P6SM -RA BKN006 OVC012
     FM281400 36011KT 5SM -RA BR OVC009
     FM290100 01007KT P6SM OVC015=

USA.gov is the U.S. government's official web portal to all federal, state and local government web resources and services.